SWR8079 FIMP-FSIA
Flight info
| Callsign | SWR8079 |
|---|---|
| Flight time | 2h 18m |
| Altitude | 41000 |
| Route | DURDA1C DURDA UT401 ALRAN UM313 RERUS/N0477F400 DCT IMPOX IMPOX1E |
| Aircraft | A359/H-SDE2E3GHIJ3J4J5LM1ORWXY/LB1D1 |
Departure
| Time | 2026-04-26 12:28 |
|---|---|
| Airport | Sir Seewoosagur Ramgoolam International Airport (FIMP) |
Arrival
| Time | 2026-04-26 14:46 |
|---|---|
| Airport | Seychelles International Airport (FSIA) |
| Time | Latitude | Longitude | Altitude | Speed | Heading |
|---|---|---|---|---|---|
| 2026-04-26 12:09 | -20.43062 | 57.67648 | 173 ft | 0 kts | 195° |
| 2026-04-26 12:19 | -20.43052 | 57.67651 | 173 ft | 2 kts | 195° |
| 2026-04-26 12:20 | -20.43038 | 57.67655 | 173 ft | 2 kts | 195° |
| 2026-04-26 12:20 | -20.43025 | 57.67659 | 174 ft | 2 kts | 194° |
| 2026-04-26 12:20 | -20.43011 | 57.67663 | 174 ft | 2 kts | 205° |
| 2026-04-26 12:20 | -20.42999 | 57.67670 | 174 ft | 2 kts | 221° |
| 2026-04-26 12:21 | -20.42990 | 57.67681 | 173 ft | 2 kts | 240° |
| 2026-04-26 12:21 | -20.42985 | 57.67695 | 173 ft | 2 kts | 272° |
| 2026-04-26 12:21 | -20.42988 | 57.67707 | 173 ft | 0 kts | 297° |
| 2026-04-26 12:23 | -20.42983 | 57.67697 | 173 ft | 6 kts | 297° |
| 2026-04-26 12:23 | -20.42952 | 57.67652 | 175 ft | 8 kts | 320° |
| 2026-04-26 12:23 | -20.42892 | 57.67615 | 176 ft | 11 kts | 330° |
| 2026-04-26 12:24 | -20.42822 | 57.67568 | 179 ft | 12 kts | 322° |
| 2026-04-26 12:24 | -20.42779 | 57.67523 | 180 ft | 8 kts | 302° |
| 2026-04-26 12:24 | -20.42764 | 57.67498 | 181 ft | 1 kts | 332° |
| 2026-04-26 12:25 | -20.42723 | 57.67484 | 183 ft | 15 kts | 342° |
| 2026-04-26 12:25 | -20.42619 | 57.67448 | 191 ft | 16 kts | 339° |
| 2026-04-26 12:25 | -20.42545 | 57.67365 | 201 ft | 16 kts | 296° |
| 2026-04-26 12:25 | -20.42509 | 57.67253 | 202 ft | 16 kts | 262° |
| 2026-04-26 12:26 | -20.42505 | 57.67207 | 209 ft | 1 kts | 323° |
| 2026-04-26 12:26 | -20.42483 | 57.67215 | 209 ft | 5 kts | 37° |
| 2026-04-26 12:26 | -20.42491 | 57.67252 | 206 ft | 9 kts | 117° |
| 2026-04-26 12:26 | -20.42495 | 57.67260 | 208 ft | 0 kts | 117° |
| 2026-04-26 12:27 | -20.42498 | 57.67266 | 208 ft | 8 kts | 117° |
| 2026-04-26 12:27 | -20.42648 | 57.67581 | 183 ft | 86 kts | 117° |
| 2026-04-26 12:27 | -20.43034 | 57.68372 | 156 ft | 152 kts | 117° |
| 2026-04-26 12:28 | -20.43566 | 57.69453 | 718 ft | 165 kts | 114° |
| 2026-04-26 12:28 | -20.44105 | 57.70560 | 1447 ft | 179 kts | 113° |
| 2026-04-26 12:28 | -20.44698 | 57.71810 | 2044 ft | 193 kts | 113° |
| 2026-04-26 12:28 | -20.45147 | 57.73143 | 2826 ft | 190 kts | 96° |
| 2026-04-26 12:29 | -20.44954 | 57.74512 | 3579 ft | 191 kts | 66° |
| 2026-04-26 12:29 | -20.44069 | 57.75598 | 4223 ft | 200 kts | 41° |
| 2026-04-26 12:29 | -20.41743 | 57.77323 | 5525 ft | 207 kts | 38° |
| 2026-04-26 12:30 | -20.40543 | 57.78202 | 6004 ft | 211 kts | 38° |
| 2026-04-26 12:30 | -20.39320 | 57.79109 | 6586 ft | 216 kts | 38° |
| 2026-04-26 12:30 | -20.38086 | 57.80031 | 7340 ft | 216 kts | 38° |
| 2026-04-26 12:31 | -20.35598 | 57.81902 | 8593 ft | 223 kts | 38° |
| 2026-04-26 12:31 | -20.34329 | 57.82858 | 9395 ft | 224 kts | 38° |
| 2026-04-26 12:31 | -20.33046 | 57.83826 | 10126 ft | 227 kts | 38° |
| 2026-04-26 12:31 | -20.31741 | 57.84810 | 10788 ft | 231 kts | 39° |
| 2026-04-26 12:32 | -20.30382 | 57.85829 | 11226 ft | 248 kts | 37° |
| 2026-04-26 12:32 | -20.28823 | 57.86801 | 11527 ft | 273 kts | 31° |
| 2026-04-26 12:32 | -20.25181 | 57.88764 | 12249 ft | 316 kts | 29° |
| 2026-04-26 12:33 | -20.23091 | 57.89718 | 12587 ft | 339 kts | 20° |
| 2026-04-26 12:33 | -20.20711 | 57.90196 | 13060 ft | 356 kts | 4° |
| 2026-04-26 12:33 | -20.18216 | 57.89974 | 13680 ft | 366 kts | 348° |
| 2026-04-26 12:33 | -20.15797 | 57.89044 | 14231 ft | 375 kts | 335° |
| 2026-04-26 12:34 | -20.13469 | 57.87747 | 14866 ft | 378 kts | 330° |
| 2026-04-26 12:34 | -20.11210 | 57.86311 | 15539 ft | 380 kts | 328° |
| 2026-04-26 12:34 | -20.08948 | 57.84801 | 16096 ft | 386 kts | 327° |
| 2026-04-26 12:34 | -20.06659 | 57.83261 | 16672 ft | 390 kts | 327° |
| 2026-04-26 12:35 | -20.04355 | 57.81730 | 17330 ft | 392 kts | 327° |
| 2026-04-26 12:35 | -20.02022 | 57.80203 | 17958 ft | 396 kts | 327° |
| 2026-04-26 12:35 | -19.99683 | 57.78694 | 18492 ft | 400 kts | 327° |
| 2026-04-26 12:35 | -19.97259 | 57.77144 | 19031 ft | 402 kts | 327° |
| 2026-04-26 12:36 | -19.94884 | 57.75633 | 19584 ft | 404 kts | 327° |
| 2026-04-26 12:36 | -19.92463 | 57.74096 | 20158 ft | 407 kts | 327° |
| 2026-04-26 12:36 | -19.90021 | 57.72546 | 20737 ft | 409 kts | 327° |
| 2026-04-26 12:36 | -19.87567 | 57.70988 | 21308 ft | 412 kts | 327° |
| 2026-04-26 12:37 | -19.85099 | 57.69421 | 21873 ft | 415 kts | 327° |
| 2026-04-26 12:37 | -19.82620 | 57.67846 | 22447 ft | 417 kts | 327° |
| 2026-04-26 12:37 | -19.80118 | 57.66257 | 22964 ft | 421 kts | 327° |
| 2026-04-26 12:37 | -19.77591 | 57.64652 | 23497 ft | 424 kts | 327° |
| 2026-04-26 12:38 | -19.75047 | 57.63037 | 23949 ft | 427 kts | 327° |
| 2026-04-26 12:38 | -19.72489 | 57.61414 | 24402 ft | 430 kts | 327° |
| 2026-04-26 12:38 | -19.69910 | 57.59779 | 24882 ft | 433 kts | 326° |
| 2026-04-26 12:38 | -19.67310 | 57.58130 | 25381 ft | 437 kts | 326° |
| 2026-04-26 12:39 | -19.64727 | 57.56493 | 25866 ft | 440 kts | 326° |
| 2026-04-26 12:39 | -19.62087 | 57.54820 | 26371 ft | 443 kts | 326° |
| 2026-04-26 12:39 | -19.59429 | 57.53137 | 26864 ft | 447 kts | 326° |
| 2026-04-26 12:39 | -19.56743 | 57.51437 | 27378 ft | 450 kts | 326° |
| 2026-04-26 12:40 | -19.54039 | 57.49725 | 27856 ft | 453 kts | 325° |
| 2026-04-26 12:40 | -19.51317 | 57.48004 | 28344 ft | 457 kts | 325° |
| 2026-04-26 12:40 | -19.48582 | 57.46274 | 28808 ft | 460 kts | 325° |
| 2026-04-26 12:40 | -19.45820 | 57.44529 | 29257 ft | 464 kts | 325° |
| 2026-04-26 12:41 | -19.43035 | 57.42769 | 29722 ft | 467 kts | 325° |
| 2026-04-26 12:41 | -19.40233 | 57.40999 | 30151 ft | 470 kts | 325° |
| 2026-04-26 12:41 | -19.37454 | 57.39246 | 30595 ft | 471 kts | 324° |
| 2026-04-26 12:41 | -19.34639 | 57.37471 | 31037 ft | 472 kts | 324° |
| 2026-04-26 12:42 | -19.31808 | 57.35687 | 31504 ft | 473 kts | 324° |
| 2026-04-26 12:42 | -19.28974 | 57.33901 | 31941 ft | 474 kts | 324° |
| 2026-04-26 12:42 | -19.26138 | 57.32114 | 32364 ft | 475 kts | 324° |
| 2026-04-26 12:42 | -19.23294 | 57.30322 | 32786 ft | 476 kts | 324° |
| 2026-04-26 12:43 | -19.20437 | 57.28523 | 33186 ft | 478 kts | 324° |
| 2026-04-26 12:43 | -19.17576 | 57.26722 | 33562 ft | 479 kts | 324° |
| 2026-04-26 12:43 | -19.14701 | 57.24913 | 33963 ft | 479 kts | 324° |
| 2026-04-26 12:43 | -19.11835 | 57.23111 | 34288 ft | 480 kts | 324° |
| 2026-04-26 12:44 | -19.08958 | 57.21303 | 34598 ft | 480 kts | 324° |
| 2026-04-26 12:44 | -19.06126 | 57.19525 | 35015 ft | 478 kts | 324° |
| 2026-04-26 12:44 | -19.03276 | 57.17737 | 35476 ft | 475 kts | 324° |
| 2026-04-26 12:44 | -19.00439 | 57.15958 | 35915 ft | 472 kts | 324° |
| 2026-04-26 12:45 | -18.97616 | 57.14188 | 36332 ft | 470 kts | 324° |
| 2026-04-26 12:45 | -18.94814 | 57.12430 | 36737 ft | 468 kts | 324° |
| 2026-04-26 12:45 | -18.92019 | 57.10677 | 37136 ft | 466 kts | 324° |
| 2026-04-26 12:45 | -18.89239 | 57.08934 | 37557 ft | 463 kts | 324° |
| 2026-04-26 12:46 | -18.86478 | 57.07204 | 37978 ft | 460 kts | 324° |
| 2026-04-26 12:46 | -18.83725 | 57.05479 | 38330 ft | 458 kts | 325° |
| 2026-04-26 12:46 | -18.80988 | 57.03765 | 38643 ft | 457 kts | 325° |
| 2026-04-26 12:46 | -18.78250 | 57.02050 | 38864 ft | 457 kts | 325° |
| 2026-04-26 12:47 | -18.75548 | 57.00358 | 39052 ft | 458 kts | 325° |
| 2026-04-26 12:47 | -18.72808 | 56.98643 | 39250 ft | 458 kts | 325° |
| 2026-04-26 12:47 | -18.70070 | 56.96931 | 39447 ft | 458 kts | 325° |
| 2026-04-26 12:47 | -18.67321 | 56.95212 | 39649 ft | 458 kts | 325° |
| 2026-04-26 12:48 | -18.64577 | 56.93498 | 39842 ft | 458 kts | 325° |
| 2026-04-26 12:48 | -18.61835 | 56.91786 | 40036 ft | 458 kts | 325° |
| 2026-04-26 12:48 | -18.59092 | 56.90074 | 40224 ft | 458 kts | 325° |
| 2026-04-26 12:48 | -18.56352 | 56.88364 | 40399 ft | 458 kts | 325° |
| 2026-04-26 12:49 | -18.53606 | 56.86651 | 40564 ft | 458 kts | 325° |
| 2026-04-26 12:49 | -18.50867 | 56.84943 | 40760 ft | 458 kts | 325° |
| 2026-04-26 12:49 | -18.48124 | 56.83233 | 40852 ft | 459 kts | 325° |
| 2026-04-26 12:50 | -18.42579 | 56.79776 | 40867 ft | 466 kts | 325° |
| 2026-04-26 12:50 | -18.36990 | 56.76297 | 40871 ft | 466 kts | 325° |
| 2026-04-26 12:51 | -18.31402 | 56.72824 | 40871 ft | 466 kts | 325° |
| 2026-04-26 12:51 | -18.25853 | 56.69376 | 40870 ft | 466 kts | 325° |
| 2026-04-26 12:52 | -18.20269 | 56.65908 | 40869 ft | 466 kts | 325° |
| 2026-04-26 12:52 | -18.14647 | 56.62420 | 40871 ft | 466 kts | 326° |
| 2026-04-26 12:53 | -18.08808 | 56.59495 | 40867 ft | 473 kts | 338° |
| 2026-04-26 12:53 | -18.02286 | 56.58206 | 40869 ft | 480 kts | 349° |
| 2026-04-26 12:54 | -17.95617 | 56.57541 | 40871 ft | 482 kts | 351° |
| 2026-04-26 12:54 | -17.88929 | 56.56966 | 40873 ft | 481 kts | 351° |
| 2026-04-26 12:55 | -17.82257 | 56.56368 | 40872 ft | 481 kts | 351° |
| 2026-04-26 12:55 | -17.75621 | 56.55748 | 40869 ft | 480 kts | 350° |
| 2026-04-26 12:56 | -17.68957 | 56.55117 | 40871 ft | 480 kts | 350° |
| 2026-04-26 12:56 | -17.62298 | 56.54487 | 40872 ft | 481 kts | 350° |
| 2026-04-26 12:57 | -17.55635 | 56.53859 | 40870 ft | 481 kts | 351° |
| 2026-04-26 12:57 | -17.49002 | 56.53235 | 40870 ft | 481 kts | 351° |
| 2026-04-26 12:58 | -17.39003 | 56.52294 | 40870 ft | 481 kts | 351° |
| 2026-04-26 12:58 | -17.33454 | 56.51773 | 40870 ft | 481 kts | 351° |
| 2026-04-26 12:59 | -17.26784 | 56.51146 | 40868 ft | 481 kts | 351° |
| 2026-04-26 12:59 | -17.20116 | 56.50521 | 40870 ft | 481 kts | 351° |
| 2026-04-26 13:00 | -17.13441 | 56.49895 | 40875 ft | 481 kts | 351° |
| 2026-04-26 13:00 | -17.06778 | 56.49270 | 40875 ft | 481 kts | 351° |
| 2026-04-26 13:01 | -17.00107 | 56.48645 | 40876 ft | 481 kts | 351° |
| 2026-04-26 13:01 | -16.93443 | 56.48022 | 40875 ft | 481 kts | 351° |
| 2026-04-26 13:02 | -16.86822 | 56.47403 | 40875 ft | 481 kts | 351° |
| 2026-04-26 13:02 | -16.80162 | 56.46780 | 40875 ft | 481 kts | 351° |
| 2026-04-26 13:03 | -16.73497 | 56.46158 | 40875 ft | 481 kts | 351° |
| 2026-04-26 13:03 | -16.66825 | 56.45535 | 40871 ft | 481 kts | 350° |
| 2026-04-26 13:04 | -16.60152 | 56.44913 | 40873 ft | 480 kts | 350° |
| 2026-04-26 13:04 | -16.53488 | 56.44292 | 40876 ft | 480 kts | 350° |
| 2026-04-26 13:05 | -16.46830 | 56.43672 | 40875 ft | 480 kts | 350° |
| 2026-04-26 13:05 | -16.40172 | 56.43053 | 40869 ft | 480 kts | 350° |
| 2026-04-26 13:06 | -16.33509 | 56.42433 | 40879 ft | 480 kts | 350° |
| 2026-04-26 13:06 | -16.26899 | 56.41819 | 40878 ft | 480 kts | 350° |
| 2026-04-26 13:07 | -16.20246 | 56.41201 | 40878 ft | 480 kts | 350° |
| 2026-04-26 13:07 | -16.13552 | 56.40579 | 40878 ft | 480 kts | 350° |
| 2026-04-26 13:08 | -16.06944 | 56.39967 | 40877 ft | 479 kts | 350° |
| 2026-04-26 13:08 | -16.00303 | 56.39352 | 40878 ft | 479 kts | 350° |
| 2026-04-26 13:09 | -15.93657 | 56.38736 | 40879 ft | 479 kts | 350° |
| 2026-04-26 13:09 | -15.87009 | 56.38120 | 40878 ft | 479 kts | 350° |
| 2026-04-26 13:10 | -15.80361 | 56.37505 | 40869 ft | 479 kts | 349° |
| 2026-04-26 13:10 | -15.73719 | 56.36891 | 40879 ft | 479 kts | 349° |
| 2026-04-26 13:11 | -15.67073 | 56.36277 | 40882 ft | 479 kts | 349° |
| 2026-04-26 13:11 | -15.60436 | 56.35664 | 40882 ft | 479 kts | 349° |
| 2026-04-26 13:12 | -15.53829 | 56.35055 | 40882 ft | 479 kts | 349° |
| 2026-04-26 13:12 | -15.47183 | 56.34442 | 40877 ft | 479 kts | 350° |
| 2026-04-26 13:13 | -15.40525 | 56.33828 | 40878 ft | 480 kts | 350° |
| 2026-04-26 13:13 | -15.33865 | 56.33215 | 40878 ft | 480 kts | 350° |
| 2026-04-26 13:14 | -15.27211 | 56.32604 | 40878 ft | 480 kts | 350° |
| 2026-04-26 13:14 | -15.20558 | 56.31994 | 40878 ft | 480 kts | 350° |
| 2026-04-26 13:15 | -15.13941 | 56.31386 | 40878 ft | 480 kts | 350° |
| 2026-04-26 13:15 | -15.07286 | 56.30773 | 40880 ft | 480 kts | 350° |
| 2026-04-26 13:16 | -15.00633 | 56.30162 | 40874 ft | 480 kts | 350° |
| 2026-04-26 13:16 | -14.93981 | 56.29551 | 40875 ft | 480 kts | 350° |
| 2026-04-26 13:17 | -14.84000 | 56.28636 | 40876 ft | 479 kts | 351° |
| 2026-04-26 13:18 | -14.74033 | 56.27724 | 40878 ft | 479 kts | 351° |
| 2026-04-26 13:19 | -14.64115 | 56.26817 | 40873 ft | 479 kts | 351° |
| 2026-04-26 13:19 | -14.57477 | 56.26210 | 40871 ft | 479 kts | 351° |
| 2026-04-26 13:20 | -14.50835 | 56.25603 | 40876 ft | 478 kts | 351° |
| 2026-04-26 13:20 | -14.44206 | 56.24998 | 40876 ft | 478 kts | 351° |
| 2026-04-26 13:21 | -14.37579 | 56.24393 | 40874 ft | 478 kts | 351° |
| 2026-04-26 13:21 | -14.30957 | 56.23789 | 40873 ft | 478 kts | 351° |
| 2026-04-26 13:22 | -14.24334 | 56.23186 | 40874 ft | 477 kts | 351° |
| 2026-04-26 13:22 | -14.17719 | 56.22583 | 40873 ft | 477 kts | 351° |
| 2026-04-26 13:23 | -14.11148 | 56.21985 | 40873 ft | 477 kts | 351° |
| 2026-04-26 13:23 | -14.04540 | 56.21384 | 40872 ft | 477 kts | 351° |
| 2026-04-26 13:24 | -13.97925 | 56.20782 | 40871 ft | 477 kts | 351° |
| 2026-04-26 13:24 | -13.91319 | 56.20182 | 40873 ft | 476 kts | 351° |
| 2026-04-26 13:25 | -13.84717 | 56.19583 | 40874 ft | 476 kts | 351° |
| 2026-04-26 13:25 | -13.78112 | 56.18983 | 40871 ft | 476 kts | 351° |
| 2026-04-26 13:26 | -13.71507 | 56.18384 | 40870 ft | 476 kts | 351° |
| 2026-04-26 13:26 | -13.64904 | 56.17785 | 40872 ft | 476 kts | 351° |
| 2026-04-26 13:27 | -13.58306 | 56.17187 | 40873 ft | 475 kts | 351° |
| 2026-04-26 13:27 | -13.51724 | 56.16591 | 40870 ft | 475 kts | 351° |
| 2026-04-26 13:28 | -13.45141 | 56.15995 | 40870 ft | 475 kts | 351° |
| 2026-04-26 13:28 | -13.38594 | 56.15403 | 40869 ft | 475 kts | 352° |
| 2026-04-26 13:29 | -13.32014 | 56.14808 | 40867 ft | 474 kts | 352° |
| 2026-04-26 13:29 | -13.25441 | 56.14214 | 40877 ft | 474 kts | 352° |
| 2026-04-26 13:30 | -13.19983 | 56.13721 | 40872 ft | 474 kts | 352° |
| 2026-04-26 13:30 | -13.12302 | 56.13027 | 40876 ft | 474 kts | 352° |
| 2026-04-26 13:31 | -13.05729 | 56.12434 | 40868 ft | 473 kts | 352° |
| 2026-04-26 13:31 | -12.99208 | 56.11846 | 40868 ft | 473 kts | 352° |
| 2026-04-26 13:32 | -12.92654 | 56.11256 | 40865 ft | 473 kts | 352° |
| 2026-04-26 13:32 | -12.86092 | 56.10665 | 40866 ft | 473 kts | 352° |
| 2026-04-26 13:33 | -12.79542 | 56.10075 | 40867 ft | 473 kts | 352° |
| 2026-04-26 13:33 | -12.72987 | 56.09485 | 40874 ft | 472 kts | 352° |
| 2026-04-26 13:34 | -12.66485 | 56.08900 | 40882 ft | 471 kts | 352° |
| 2026-04-26 13:34 | -12.59950 | 56.08313 | 40873 ft | 471 kts | 352° |
| 2026-04-26 13:35 | -12.53406 | 56.07725 | 40879 ft | 471 kts | 352° |
| 2026-04-26 13:35 | -12.46862 | 56.07137 | 40871 ft | 471 kts | 353° |
| 2026-04-26 13:36 | -12.40331 | 56.06551 | 40863 ft | 470 kts | 353° |
| 2026-04-26 13:36 | -12.33809 | 56.05966 | 40868 ft | 470 kts | 353° |
| 2026-04-26 13:37 | -12.27335 | 56.05386 | 40867 ft | 470 kts | 353° |
| 2026-04-26 13:37 | -12.20808 | 56.04801 | 40873 ft | 470 kts | 353° |
| 2026-04-26 13:38 | -12.14290 | 56.04225 | 40871 ft | 470 kts | 353° |
| 2026-04-26 13:38 | -12.07771 | 56.04534 | 40871 ft | 474 kts | 5° |
| 2026-04-26 13:39 | -12.01234 | 56.05491 | 40876 ft | 475 kts | 6° |
| 2026-04-26 13:39 | -11.94699 | 56.06556 | 40871 ft | 475 kts | 6° |
| 2026-04-26 13:40 | -11.88174 | 56.07616 | 40871 ft | 475 kts | 6° |
| 2026-04-26 13:40 | -11.81647 | 56.08658 | 40871 ft | 474 kts | 6° |
| 2026-04-26 13:41 | -11.75132 | 56.09690 | 40869 ft | 473 kts | 6° |
| 2026-04-26 13:41 | -11.68617 | 56.10720 | 40865 ft | 473 kts | 6° |
| 2026-04-26 13:42 | -11.62103 | 56.11750 | 40873 ft | 473 kts | 6° |
| 2026-04-26 13:42 | -11.56690 | 56.12606 | 40876 ft | 474 kts | 6° |
| 2026-04-26 13:43 | -11.50185 | 56.13634 | 40864 ft | 472 kts | 6° |
| 2026-04-26 13:43 | -11.43696 | 56.14660 | 40862 ft | 472 kts | 6° |
| 2026-04-26 13:44 | -11.37192 | 56.15687 | 40871 ft | 472 kts | 6° |
| 2026-04-26 13:44 | -11.30698 | 56.16712 | 40870 ft | 472 kts | 6° |
| 2026-04-26 13:45 | -11.24204 | 56.17736 | 40857 ft | 472 kts | 6° |
| 2026-04-26 13:45 | -11.17751 | 56.18754 | 40858 ft | 472 kts | 6° |
| 2026-04-26 13:46 | -11.11265 | 56.19777 | 40872 ft | 472 kts | 6° |
| 2026-04-26 13:46 | -11.04770 | 56.20800 | 40862 ft | 472 kts | 6° |
| 2026-04-26 13:47 | -10.98270 | 56.21824 | 40872 ft | 472 kts | 6° |
| 2026-04-26 13:47 | -10.91779 | 56.22846 | 40875 ft | 472 kts | 6° |
| 2026-04-26 13:48 | -10.85293 | 56.23866 | 40870 ft | 472 kts | 6° |
| 2026-04-26 13:48 | -10.78807 | 56.24887 | 40869 ft | 471 kts | 6° |
| 2026-04-26 13:49 | -10.72357 | 56.25901 | 40858 ft | 471 kts | 6° |
| 2026-04-26 13:49 | -10.65878 | 56.26919 | 40865 ft | 471 kts | 6° |
| 2026-04-26 13:50 | -10.59391 | 56.27938 | 40874 ft | 471 kts | 6° |
| 2026-04-26 13:50 | -10.52910 | 56.28956 | 40858 ft | 471 kts | 6° |
| 2026-04-26 13:51 | -10.46420 | 56.29974 | 40873 ft | 471 kts | 6° |
| 2026-04-26 13:51 | -10.39939 | 56.30991 | 40871 ft | 472 kts | 6° |
| 2026-04-26 13:52 | -10.33430 | 56.32012 | 40869 ft | 472 kts | 6° |
| 2026-04-26 13:52 | -10.26943 | 56.33029 | 40866 ft | 472 kts | 6° |
| 2026-04-26 13:53 | -10.20454 | 56.34046 | 40865 ft | 472 kts | 6° |
| 2026-04-26 13:53 | -10.13996 | 56.35057 | 40864 ft | 472 kts | 6° |
| 2026-04-26 13:54 | -10.07507 | 56.36073 | 40869 ft | 472 kts | 6° |
| 2026-04-26 13:54 | -10.01005 | 56.36950 | 40875 ft | 470 kts | 0° |
| 2026-04-26 13:55 | -9.92367 | 56.36403 | 40865 ft | 467 kts | 352° |
| 2026-04-26 13:56 | -9.81599 | 56.35098 | 40857 ft | 467 kts | 351° |
| 2026-04-26 13:56 | -9.75141 | 56.34313 | 40868 ft | 467 kts | 351° |
| 2026-04-26 13:57 | -9.68725 | 56.33549 | 40862 ft | 467 kts | 351° |
| 2026-04-26 13:57 | -9.62258 | 56.32786 | 40860 ft | 467 kts | 351° |
| 2026-04-26 13:58 | -9.55793 | 56.32024 | 40871 ft | 467 kts | 351° |
| 2026-04-26 13:58 | -9.49331 | 56.31261 | 40860 ft | 467 kts | 351° |
| 2026-04-26 13:59 | -9.42905 | 56.30502 | 40869 ft | 468 kts | 352° |
| 2026-04-26 13:59 | -9.36392 | 56.29734 | 40870 ft | 468 kts | 352° |
| 2026-04-26 14:00 | -9.23495 | 56.28213 | 40865 ft | 468 kts | 351° |
| 2026-04-26 14:01 | -9.17028 | 56.27451 | 40871 ft | 468 kts | 352° |
| 2026-04-26 14:01 | -9.10557 | 56.26689 | 40866 ft | 468 kts | 352° |
| 2026-04-26 14:02 | -9.04081 | 56.25926 | 40861 ft | 468 kts | 352° |
| 2026-04-26 14:02 | -8.97603 | 56.25163 | 40867 ft | 468 kts | 352° |
| 2026-04-26 14:03 | -8.91131 | 56.24402 | 40868 ft | 468 kts | 352° |
| 2026-04-26 14:03 | -8.84666 | 56.23641 | 40859 ft | 468 kts | 352° |
| 2026-04-26 14:04 | -8.78188 | 56.22879 | 40868 ft | 469 kts | 352° |
| 2026-04-26 14:04 | -8.71703 | 56.22116 | 40868 ft | 469 kts | 352° |
| 2026-04-26 14:05 | -8.65255 | 56.21359 | 40860 ft | 469 kts | 352° |
| 2026-04-26 14:05 | -8.58764 | 56.20596 | 40869 ft | 469 kts | 352° |
| 2026-04-26 14:06 | -8.52268 | 56.19833 | 40857 ft | 469 kts | 352° |
| 2026-04-26 14:06 | -8.45778 | 56.19071 | 40872 ft | 469 kts | 352° |
| 2026-04-26 14:07 | -8.39288 | 56.18310 | 40873 ft | 469 kts | 352° |
| 2026-04-26 14:07 | -8.32795 | 56.17548 | 40870 ft | 470 kts | 352° |
| 2026-04-26 14:08 | -8.26338 | 56.16791 | 40869 ft | 470 kts | 352° |
| 2026-04-26 14:08 | -8.19844 | 56.16029 | 40864 ft | 470 kts | 352° |
| 2026-04-26 14:09 | -8.13352 | 56.15268 | 40857 ft | 470 kts | 352° |
| 2026-04-26 14:09 | -8.06850 | 56.14507 | 40874 ft | 470 kts | 352° |
| 2026-04-26 14:10 | -8.00357 | 56.13746 | 40863 ft | 470 kts | 352° |
| 2026-04-26 14:10 | -7.93857 | 56.12985 | 40871 ft | 470 kts | 352° |
| 2026-04-26 14:11 | -7.84101 | 56.11843 | 40872 ft | 470 kts | 353° |
| 2026-04-26 14:11 | -7.77591 | 56.11081 | 40870 ft | 471 kts | 353° |
| 2026-04-26 14:12 | -7.71085 | 56.10321 | 40874 ft | 471 kts | 353° |
| 2026-04-26 14:12 | -7.64615 | 56.09536 | 40869 ft | 471 kts | 349° |
| 2026-04-26 14:13 | -7.55203 | 56.06768 | 40873 ft | 470 kts | 342° |
| 2026-04-26 14:14 | -7.48967 | 56.04748 | 40872 ft | 471 kts | 342° |
| 2026-04-26 14:14 | -7.42734 | 56.02721 | 40871 ft | 471 kts | 342° |
| 2026-04-26 14:15 | -7.36496 | 56.00692 | 40865 ft | 471 kts | 342° |
| 2026-04-26 14:15 | -7.30256 | 55.98661 | 40861 ft | 471 kts | 342° |
| 2026-04-26 14:16 | -7.24024 | 55.96633 | 40866 ft | 471 kts | 342° |
| 2026-04-26 14:16 | -7.17787 | 55.94604 | 40871 ft | 471 kts | 342° |
| 2026-04-26 14:17 | -7.11543 | 55.92574 | 40867 ft | 471 kts | 342° |
| 2026-04-26 14:17 | -7.05344 | 55.90559 | 40873 ft | 471 kts | 342° |
| 2026-04-26 14:18 | -6.99099 | 55.88529 | 40870 ft | 471 kts | 342° |
| 2026-04-26 14:18 | -6.92861 | 55.86502 | 40872 ft | 471 kts | 342° |
| 2026-04-26 14:19 | -6.86613 | 55.84473 | 40875 ft | 472 kts | 342° |
| 2026-04-26 14:19 | -6.80357 | 55.82442 | 40879 ft | 472 kts | 342° |
| 2026-04-26 14:20 | -6.74097 | 55.80409 | 40665 ft | 472 kts | 342° |
| 2026-04-26 14:20 | -6.71012 | 55.79408 | 40413 ft | 470 kts | 342° |
| 2026-04-26 14:20 | -6.67854 | 55.78383 | 40195 ft | 472 kts | 342° |
| 2026-04-26 14:20 | -6.64734 | 55.77371 | 39596 ft | 472 kts | 341° |
| 2026-04-26 14:21 | -6.61640 | 55.76367 | 38895 ft | 474 kts | 341° |
| 2026-04-26 14:21 | -6.58495 | 55.75347 | 38195 ft | 475 kts | 341° |
| 2026-04-26 14:21 | -6.55350 | 55.74327 | 37516 ft | 475 kts | 341° |
| 2026-04-26 14:21 | -6.52203 | 55.73306 | 36836 ft | 474 kts | 341° |
| 2026-04-26 14:22 | -6.49056 | 55.72285 | 36161 ft | 475 kts | 341° |
| 2026-04-26 14:22 | -6.45900 | 55.71262 | 35494 ft | 476 kts | 341° |
| 2026-04-26 14:22 | -6.42760 | 55.70244 | 34972 ft | 473 kts | 341° |
| 2026-04-26 14:22 | -6.39627 | 55.69229 | 34440 ft | 472 kts | 341° |
| 2026-04-26 14:23 | -6.36507 | 55.68218 | 33892 ft | 470 kts | 341° |
| 2026-04-26 14:23 | -6.33399 | 55.67210 | 33289 ft | 469 kts | 341° |
| 2026-04-26 14:23 | -6.30307 | 55.66209 | 32754 ft | 466 kts | 341° |
| 2026-04-26 14:23 | -6.27233 | 55.65213 | 32228 ft | 463 kts | 341° |
| 2026-04-26 14:24 | -6.24170 | 55.64220 | 31697 ft | 461 kts | 341° |
| 2026-04-26 14:24 | -6.21130 | 55.63236 | 31177 ft | 458 kts | 341° |
| 2026-04-26 14:24 | -6.18105 | 55.62256 | 30649 ft | 456 kts | 341° |
| 2026-04-26 14:24 | -6.15092 | 55.61280 | 30127 ft | 454 kts | 341° |
| 2026-04-26 14:25 | -6.12126 | 55.60320 | 29557 ft | 452 kts | 341° |
| 2026-04-26 14:25 | -6.09143 | 55.59354 | 29021 ft | 448 kts | 341° |
| 2026-04-26 14:25 | -6.06188 | 55.58398 | 28504 ft | 444 kts | 341° |
| 2026-04-26 14:25 | -6.03258 | 55.57449 | 27990 ft | 441 kts | 341° |
| 2026-04-26 14:26 | -6.00343 | 55.56506 | 27475 ft | 437 kts | 341° |
| 2026-04-26 14:26 | -5.97455 | 55.55571 | 26962 ft | 434 kts | 341° |
| 2026-04-26 14:26 | -5.94581 | 55.54641 | 26448 ft | 432 kts | 341° |
| 2026-04-26 14:26 | -5.91731 | 55.53719 | 25936 ft | 429 kts | 341° |
| 2026-04-26 14:27 | -5.88895 | 55.52801 | 25420 ft | 427 kts | 342° |
| 2026-04-26 14:27 | -5.86078 | 55.51890 | 24908 ft | 425 kts | 342° |
| 2026-04-26 14:27 | -5.83272 | 55.50982 | 24395 ft | 423 kts | 342° |
| 2026-04-26 14:27 | -5.81422 | 55.50384 | 24053 ft | 422 kts | 342° |
| 2026-04-26 14:28 | -5.78633 | 55.49482 | 23529 ft | 420 kts | 342° |
| 2026-04-26 14:28 | -5.75859 | 55.48585 | 22955 ft | 418 kts | 342° |
| 2026-04-26 14:28 | -5.73100 | 55.47693 | 22425 ft | 414 kts | 342° |
| 2026-04-26 14:28 | -5.70371 | 55.46811 | 21920 ft | 410 kts | 342° |
| 2026-04-26 14:29 | -5.67664 | 55.45936 | 21403 ft | 406 kts | 342° |
| 2026-04-26 14:29 | -5.64987 | 55.45070 | 20903 ft | 403 kts | 342° |
| 2026-04-26 14:29 | -5.62334 | 55.44213 | 20403 ft | 399 kts | 343° |
| 2026-04-26 14:29 | -5.59702 | 55.43363 | 19904 ft | 396 kts | 342° |
| 2026-04-26 14:30 | -5.57089 | 55.42518 | 19419 ft | 392 kts | 343° |
| 2026-04-26 14:30 | -5.54501 | 55.41682 | 18926 ft | 389 kts | 343° |
| 2026-04-26 14:30 | -5.51965 | 55.40863 | 18443 ft | 386 kts | 343° |
| 2026-04-26 14:30 | -5.49414 | 55.40039 | 17924 ft | 384 kts | 343° |
| 2026-04-26 14:31 | -5.46884 | 55.39221 | 17422 ft | 379 kts | 343° |
| 2026-04-26 14:31 | -5.44388 | 55.38416 | 16945 ft | 374 kts | 343° |
| 2026-04-26 14:31 | -5.41922 | 55.37620 | 16466 ft | 370 kts | 342° |
| 2026-04-26 14:31 | -5.39490 | 55.36834 | 16011 ft | 365 kts | 343° |
| 2026-04-26 14:32 | -5.37085 | 55.36058 | 15533 ft | 361 kts | 343° |
| 2026-04-26 14:32 | -5.34711 | 55.35292 | 15137 ft | 355 kts | 342° |
| 2026-04-26 14:32 | -5.32373 | 55.34537 | 14733 ft | 349 kts | 342° |
| 2026-04-26 14:32 | -5.30073 | 55.33794 | 14307 ft | 345 kts | 342° |
| 2026-04-26 14:33 | -5.27797 | 55.33060 | 13880 ft | 342 kts | 342° |
| 2026-04-26 14:33 | -5.25545 | 55.32333 | 13422 ft | 338 kts | 342° |
| 2026-04-26 14:33 | -5.23345 | 55.31623 | 12975 ft | 334 kts | 342° |
| 2026-04-26 14:33 | -5.21151 | 55.30915 | 12530 ft | 329 kts | 342° |
| 2026-04-26 14:34 | -5.18989 | 55.30218 | 12105 ft | 325 kts | 342° |
| 2026-04-26 14:34 | -5.16848 | 55.29527 | 11684 ft | 321 kts | 342° |
| 2026-04-26 14:34 | -5.14697 | 55.28926 | 11225 ft | 320 kts | 349° |
| 2026-04-26 14:34 | -5.12493 | 55.28988 | 10779 ft | 316 kts | 14° |
| 2026-04-26 14:35 | -5.10585 | 55.29923 | 10640 ft | 299 kts | 37° |
| 2026-04-26 14:35 | -5.09231 | 55.31435 | 10513 ft | 286 kts | 57° |
| 2026-04-26 14:35 | -5.08239 | 55.33139 | 10280 ft | 282 kts | 61° |
| 2026-04-26 14:35 | -5.07302 | 55.34865 | 9911 ft | 281 kts | 61° |
| 2026-04-26 14:36 | -5.06352 | 55.36615 | 9635 ft | 296 kts | 61° |
| 2026-04-26 14:36 | -5.05350 | 55.38446 | 9444 ft | 301 kts | 61° |
| 2026-04-26 14:36 | -5.04346 | 55.40274 | 9034 ft | 298 kts | 61° |
| 2026-04-26 14:36 | -5.03342 | 55.42098 | 8530 ft | 299 kts | 61° |
| 2026-04-26 14:37 | -5.02339 | 55.43916 | 8157 ft | 296 kts | 61° |
| 2026-04-26 14:37 | -5.01345 | 55.45718 | 7799 ft | 294 kts | 61° |
| 2026-04-26 14:37 | -5.00354 | 55.47514 | 7445 ft | 293 kts | 61° |
| 2026-04-26 14:37 | -4.99368 | 55.49299 | 7102 ft | 292 kts | 61° |
| 2026-04-26 14:38 | -4.98397 | 55.51057 | 6760 ft | 290 kts | 61° |
| 2026-04-26 14:38 | -4.97423 | 55.52821 | 6426 ft | 289 kts | 61° |
| 2026-04-26 14:38 | -4.96448 | 55.54585 | 6061 ft | 288 kts | 61° |
| 2026-04-26 14:38 | -4.95480 | 55.56337 | 5711 ft | 287 kts | 62° |
| 2026-04-26 14:39 | -4.94516 | 55.58082 | 5369 ft | 285 kts | 62° |
| 2026-04-26 14:39 | -4.93559 | 55.59814 | 5047 ft | 283 kts | 62° |
| 2026-04-26 14:39 | -4.92549 | 55.61512 | 4714 ft | 283 kts | 54° |
| 2026-04-26 14:39 | -4.91087 | 55.62800 | 4472 ft | 281 kts | 27° |
| 2026-04-26 14:40 | -4.89277 | 55.63511 | 4070 ft | 279 kts | 17° |
| 2026-04-26 14:40 | -4.87417 | 55.64066 | 3721 ft | 278 kts | 15° |
| 2026-04-26 14:40 | -4.85563 | 55.64615 | 3392 ft | 277 kts | 16° |
| 2026-04-26 14:40 | -4.83757 | 55.65158 | 3278 ft | 263 kts | 16° |
| 2026-04-26 14:41 | -4.82072 | 55.65670 | 3177 ft | 249 kts | 16° |
| 2026-04-26 14:41 | -4.80453 | 55.66165 | 3069 ft | 237 kts | 17° |
| 2026-04-26 14:41 | -4.78896 | 55.66520 | 2962 ft | 223 kts | 1° |
| 2026-04-26 14:41 | -4.77471 | 55.66172 | 2877 ft | 204 kts | 326° |
| 2026-04-26 14:42 | -4.76512 | 55.65220 | 2791 ft | 187 kts | 304° |
| 2026-04-26 14:42 | -4.75796 | 55.64195 | 2740 ft | 173 kts | 301° |
| 2026-04-26 14:42 | -4.75138 | 55.63237 | 2644 ft | 159 kts | 302° |
| 2026-04-26 14:42 | -4.74526 | 55.62365 | 2509 ft | 148 kts | 301° |
| 2026-04-26 14:43 | -4.73948 | 55.61535 | 2254 ft | 143 kts | 301° |
| 2026-04-26 14:43 | -4.73388 | 55.60728 | 2028 ft | 137 kts | 302° |
| 2026-04-26 14:43 | -4.72845 | 55.59949 | 2013 ft | 138 kts | 302° |
| 2026-04-26 14:43 | -4.72297 | 55.59158 | 2008 ft | 140 kts | 302° |
| 2026-04-26 14:44 | -4.71727 | 55.58338 | 1869 ft | 146 kts | 302° |
| 2026-04-26 14:44 | -4.71145 | 55.57488 | 1418 ft | 150 kts | 302° |
| 2026-04-26 14:44 | -4.70539 | 55.56636 | 991 ft | 150 kts | 304° |
| 2026-04-26 14:44 | -4.69936 | 55.55804 | 724 ft | 145 kts | 304° |
| 2026-04-26 14:45 | -4.69382 | 55.54981 | 520 ft | 140 kts | 303° |
| 2026-04-26 14:45 | -4.69008 | 55.54457 | 469 ft | 139 kts | 305° |
| 2026-04-26 14:45 | -4.68267 | 55.53379 | 168 ft | 139 kts | 300° |
| 2026-04-26 14:45 | -4.67733 | 55.52610 | 23 ft | 129 kts | 306° |
| 2026-04-26 14:46 | -4.67265 | 55.51942 | 16 ft | 100 kts | 305° |
| 2026-04-26 14:46 | -4.67033 | 55.51611 | 16 ft | 37 kts | 305° |
| 2026-04-26 14:46 | -4.66949 | 55.51491 | 16 ft | 9 kts | 306° |
| 2026-04-26 14:46 | -4.66906 | 55.51424 | 16 ft | 14 kts | 291° |
| 2026-04-26 14:47 | -4.66943 | 55.51349 | 15 ft | 0 kts | 217° |
| 2026-04-26 14:48 | -4.66958 | 55.51338 | 15 ft | 8 kts | 217° |
| 2026-04-26 14:48 | -4.67007 | 55.51296 | 15 ft | 7 kts | 227° |
| 2026-04-26 14:48 | -4.67052 | 55.51268 | 15 ft | 7 kts | 196° |
| 2026-04-26 14:48 | -4.67091 | 55.51260 | 15 ft | 0 kts | 191° |